Hovedside
METAR-TAF:

METAR-TAF

Lufthavner :

Oljeplattform Norsk Hydro

Oseberg, Norge

breddegrad: 60-29-29N, lengdegrad: 2-49-32E, høyde over havet: 158 m

Gjeldene værobservasjon

Denne rapporten ble laget for 47 minutter siden, klokken 17:50 UTC
Vind 29 kt fra Sør
Temperatur 5°C
Luftfuktighet 81%
Trykk 980 hPa
Sikt 10 km eller mer
Brutte skyer i en høyde av 2500 ft
lette regnbyger

METAR: ENOA 121750Z 18029KT 9999 -SHRA BKN025 05/02 Q0980 W///S5

Tid: 19:37 (18:37 UTC)

Varsel

Varsel gyldig fra 12. klokken 18 UTC til 13. klokken 18 UTC
Vind 28 kt fra Sør
Sikt 10 km eller mer
Få skyer i en høyde av 2000 ft, Tårnskyer (cumulus).
Spredte skyer i en høyde av 3000 ft
lette regnbyger
Midlertidig
fra 12. klokken 18 UTC til 13. klokken 07 UTC
Brutte skyer i en høyde av 1800 ft, Bygeskyer.
regnbyger
Blir
fra 13. klokken 04 UTC til 13. klokken 07 UTC
Vind 28 kt fra Sørøst

TAF: ENOA 1218/1318 19028KT 9999 -SHRA FEW020TCU SCT030 TEMPO 1218/1307 SHRA BKN018CB BECMG 1304/1307 13028KT

Værobservasjoner og værvarsel for over 4000 flyplasser (METAR- og TAF-rapporter).

Tilgjengelige stasjoner er representert av de røde og gule prikkene på kartet.

Hold musepekeren over prikken for å se navnet på stasjonen.

Klikk så for å se værobservasjoner og -varsler.

For å forandre kartet kan du klikke på den grønne knappen med svart kryss for å zoome inn, på den grønne knappen med strek for å zoome ut, eller på de grønne pilene for å se tilstøtende kart.


METAR-TAF: